TFM - Tactical Decision Aid
ID: Runway Winds: CIG/VIS Threshold:

KCLE - Cleveland/Hopkins In, OH, US

Updated at: 0854 UTC 25 Apr 2019
Latest TAF at: 0539 UTC 25 Apr 2019

TAF Board

Time0851Z 25/09Z 25/10Z 25/11Z 25/12Z 25/13Z 25/14Z 25/15Z 25/16Z 25/17Z 25/18Z 25/19Z 25/20Z 25/21Z>>
Type OBS PRVL PRVL PRVL PRVL PRVL PRVL PRVL PRVL PRVL PRVL PRVL PRVL PRVL
VIS 10 >6 >6 >6 >6 >6 >6 >6 >6 >6 >6 >6 >6 >6
CIG 60 120 120 120 120 120 120 30 30 30 30 30 15 15
Cover OVC BKN BKN BKN BKN BKN BKN OVC OVC OVC OVC OVC OVC OVC
FltCat VFR VFR VFR VFR VFR VFR VFR MVFR MVFR MVFR MVFR MVFR MVFR MVFR
WX -RA -- -- -- -- -- -- -- -- -- -- -- -- --
WDir 160 VRB VRB VRB VRB VRB VRB 110 110 110 110 110 110 110
WSpd 4 4 4 4 4 4 4 8 8 8 8 8 6 6
WGst -- -- -- -- -- -- -- -- -- -- -- -- -- --

TDA Impact Legend

  None Marginal Slight Moderate High
Visibility (sm) >5 3≤X≤5 1≤X<3 0.5≤X<1 <0.5
Ceiling (100 ft) >30 10≤X≤30 4≤X<10 2≤X<4 <2
Wind Speed (kt) <15 15≤X<25 25≤X<30 ≥30
Wind Gust (kt) <15 15≤X<25 25≤X<35 ≥35
Weather No Wx Reported VCTS -TS,-FZRA TS,FZRA +TS,+FZRA
TAF
KCLE 250539Z 2506/2612 VRB04KT P6SM BKN120
  FM251500 11008KT P6SM BKN030 OVC070
  FM252000 11006KT P6SM BKN015 OVC025
  FM260200 15005KT 4SM -SHRA BR BKN010 OVC025


METAR
KCLE 250851Z 16004KT 10SM -RA SCT040 BKN060 OVC080 09/04 A2991 RMK AO2 SLP129 RAB21 P0001 60001 T00940039 55004 $
KCLE 250751Z 16003KT 10SM BKN055 BKN100 OVC140 10/03 A2991 RMK AO2 SLP128 T01000033 $
KCLE 250651Z 13003KT 10SM SCT110 SCT150 BKN250 09/03 A2991 RMK AO2 SLP128 T00890028 $
KCLE 250551Z 12004KT 10SM FEW120 FEW150 OVC250 09/02 A2992 RMK AO2 SLP133 T00940022 10111 20094 55010 $

Radar Display
Forecast Discussion